Time;durP1;ratioP1;P1;durP2;ratioP2;P2;SDS_P1;SDS_P2;PMS_P1;PMS_P2;Temp;Humidity;BMP_temperature;BMP_pressure;BME280_temperature;BME280_humidity;BME280_pressure;Samples;Min_cycle;Max_cycle;Signal;HPM_P1;HPM_P2
2021/04/25 00:01:16;;;;;;;9.63;3.70;;;6.40;99.90;;;;;;5088453;28;20492;-71
2021/04/25 00:03:42;;;;;;;10.40;3.47;;;6.40;99.90;;;;;;5088738;28;20529;-64
2021/04/25 00:06:08;;;;;;;8.73;3.72;;;6.40;99.90;;;;;;5088713;28;20039;-64
2021/04/25 00:08:34;;;;;;;7.75;3.00;;;6.40;99.90;;;;;;5088140;28;20024;-63
2021/04/25 00:11:01;;;;;;;7.93;3.33;;;6.40;99.90;;;;;;5089293;28;20093;-64
2021/04/25 00:13:27;;;;;;;8.57;3.42;;;6.40;99.90;;;;;;5085466;28;20024;-64
2021/04/25 00:15:53;;;;;;;7.97;3.20;;;6.40;99.90;;;;;;5087453;28;20069;-63
2021/04/25 00:18:19;;;;;;;16.30;3.40;;;6.40;99.90;;;;;;5089096;28;20032;-61
2021/04/25 00:20:44;;;;;;;7.43;3.20;;;6.40;99.90;;;;;;5088609;28;20086;-65
2021/04/25 00:23:10;;;;;;;8.32;3.00;;;6.30;99.90;;;;;;5089816;28;20035;-64
2021/04/25 00:25:35;;;;;;;12.00;3.25;;;6.20;99.90;;;;;;5088894;28;20039;-64
2021/04/25 00:28:01;;;;;;;8.85;3.53;;;6.20;99.90;;;;;;5087111;28;20032;-62
2021/04/25 00:30:27;;;;;;;12.23;2.63;;;6.20;99.90;;;;;;5088475;28;20373;-65
2021/04/25 00:32:52;;;;;;;8.27;3.08;;;6.20;99.90;;;;;;5088266;28;20518;-64
2021/04/25 00:35:19;;;;;;;7.13;3.47;;;6.30;99.90;;;;;;5088940;28;20031;-64
2021/04/25 00:37:45;;;;;;;11.65;2.53;;;6.40;99.90;;;;;;5086958;28;20115;-64
2021/04/25 00:40:13;;;;;;;9.50;2.55;;;6.50;99.90;;;;;;5087138;28;20028;-64
2021/04/25 00:42:39;;;;;;;10.55;3.17;;;6.60;99.90;;;;;;5086624;28;20247;-64
2021/04/25 00:45:08;;;;;;;5.93;2.58;;;6.70;99.90;;;;;;5088958;28;20418;-64
2021/04/25 00:47:34;;;;;;;11.00;2.28;;;6.80;99.90;;;;;;5088525;28;20131;-64
2021/04/25 00:50:00;;;;;;;7.57;2.53;;;6.90;99.90;;;;;;5086494;28;20077;-64
2021/04/25 00:52:26;;;;;;;5.40;2.03;;;6.90;99.90;;;;;;5089318;28;20333;-63
2021/04/25 00:54:52;;;;;;;12.50;2.90;;;6.90;99.90;;;;;;5088373;28;20102;-64
2021/04/25 00:57:20;;;;;;;4.82;2.53;;;7.00;99.90;;;;;;5088534;28;20128;-65
2021/04/25 00:59:47;;;;;;;8.13;2.85;;;7.00;99.90;;;;;;5087798;28;20101;-65
2021/04/25 01:02:12;;;;;;;10.18;2.55;;;7.00;99.90;;;;;;5087433;28;20039;-64
2021/04/25 01:04:38;;;;;;;5.38;2.17;;;7.00;99.90;;;;;;5088926;28;20044;-64
2021/04/25 01:07:04;;;;;;;7.22;2.50;;;7.00;99.90;;;;;;5087637;28;20521;-64
2021/04/25 01:09:31;;;;;;;7.68;2.35;;;7.10;99.90;;;;;;5088053;28;20052;-65
2021/04/25 01:11:56;;;;;;;8.48;2.72;;;7.10;99.90;;;;;;5088537;28;20024;-64
2021/04/25 01:14:22;;;;;;;8.77;3.30;;;7.10;99.90;;;;;;5087411;28;20385;-64
2021/04/25 01:16:48;;;;;;;10.10;2.70;;;7.10;99.90;;;;;;5086913;28;20036;-63
2021/04/25 01:19:14;;;;;;;10.05;2.40;;;7.20;99.90;;;;;;5086696;28;20575;-63
2021/04/25 01:21:39;;;;;;;9.25;2.50;;;7.20;99.90;;;;;;5086449;28;20437;-64
2021/04/25 01:24:05;;;;;;;4.63;2.00;;;7.20;99.90;;;;;;5088096;28;20032;-65
2021/04/25 01:26:31;;;;;;;6.35;2.30;;;7.20;99.90;;;;;;5088363;28;20040;-64
2021/04/25 01:28:57;;;;;;;7.40;2.97;;;7.20;99.90;;;;;;5087186;28;20036;-64
2021/04/25 01:31:22;;;;;;;5.18;2.10;;;7.20;99.90;;;;;;5088679;28;20097;-62
2021/04/25 01:33:48;;;;;;;5.95;2.45;;;7.20;99.90;;;;;;5088378;28;20032;-64
2021/04/25 01:36:14;;;;;;;6.63;2.00;;;7.20;99.90;;;;;;5086713;28;20476;-64
2021/04/25 01:38:39;;;;;;;5.30;2.38;;;7.20;99.90;;;;;;5087880;28;20071;-64
2021/04/25 01:41:05;;;;;;;4.97;2.45;;;7.20;99.90;;;;;;5086842;28;20028;-64
2021/04/25 01:43:32;;;;;;;6.03;2.40;;;7.20;99.90;;;;;;5086368;28;20111;-64
2021/04/25 01:45:57;;;;;;;5.53;2.25;;;7.10;99.90;;;;;;5087747;28;20024;-64
2021/04/25 01:48:23;;;;;;;7.10;2.28;;;7.20;99.90;;;;;;5087566;28;20040;-64
2021/04/25 01:50:49;;;;;;;6.80;2.83;;;7.10;99.90;;;;;;5086429;28;20032;-64
2021/04/25 01:53:15;;;;;;;6.45;2.13;;;7.10;99.90;;;;;;5085131;28;20051;-61
2021/04/25 01:55:41;;;;;;;9.85;3.08;;;7.10;99.90;;;;;;5084067;28;20032;-64
2021/04/25 01:58:08;;;;;;;9.07;2.20;;;7.00;99.90;;;;;;5088623;28;20072;-65
2021/04/25 02:00:37;;;;;;;7.22;2.63;;;7.10;99.90;;;;;;5089652;28;20028;-64
2021/04/25 02:03:04;;;;;;;8.27;2.72;;;7.10;99.90;;;;;;5087452;28;20115;-65
2021/04/25 02:05:30;;;;;;;8.85;2.30;;;7.00;99.90;;;;;;5086141;28;20038;-61
2021/04/25 02:07:56;;;;;;;7.03;2.25;;;7.10;99.90;;;;;;5086330;28;20484;-63
2021/04/25 02:10:23;;;;;;;5.90;2.40;;;7.10;99.90;;;;;;5086706;28;20044;-65
2021/04/25 02:12:49;;;;;;;5.57;2.25;;;7.00;99.90;;;;;;5086725;28;20035;-64
2021/04/25 02:15:15;;;;;;;7.82;2.13;;;7.10;99.90;;;;;;5082766;28;20062;-62
2021/04/25 02:17:44;;;;;;;4.85;2.17;;;7.10;99.90;;;;;;5087071;28;20393;-64
2021/04/25 02:20:12;;;;;;;9.02;2.10;;;7.00;99.90;;;;;;5086995;28;20036;-64
2021/04/25 02:22:38;;;;;;;8.40;2.22;;;7.00;99.90;;;;;;5086270;28;20035;-64
2021/04/25 02:25:06;;;;;;;10.73;2.92;;;7.00;99.90;;;;;;5087261;28;20032;-63
2021/04/25 02:27:32;;;;;;;7.03;2.17;;;7.00;99.90;;;;;;5086501;28;20299;-64
2021/04/25 02:29:58;;;;;;;7.00;2.78;;;7.00;99.90;;;;;;5086461;28;20309;-64
2021/04/25 02:32:24;;;;;;;5.60;2.47;;;7.00;99.90;;;;;;5087173;28;20040;-64
2021/04/25 02:34:49;;;;;;;6.78;2.60;;;7.10;99.90;;;;;;5086795;28;20035;-64
2021/04/25 02:37:15;;;;;;;5.78;2.00;;;7.10;99.90;;;;;;5086872;28;20040;-64
2021/04/25 02:39:41;;;;;;;7.20;2.33;;;7.10;99.90;;;;;;5086230;28;20149;-63
2021/04/25 02:42:06;;;;;;;6.07;2.00;;;7.00;99.90;;;;;;5087522;28;20032;-64
2021/04/25 02:44:32;;;;;;;5.32;2.25;;;7.00;99.90;;;;;;5086871;28;20065;-64
2021/04/25 02:46:58;;;;;;;8.90;2.33;;;7.10;99.90;;;;;;5087246;28;20097;-64
2021/04/25 02:49:23;;;;;;;8.35;3.40;;;7.20;99.90;;;;;;5086061;28;20036;-64
2021/04/25 02:51:49;;;;;;;8.45;2.00;;;7.10;99.90;;;;;;5086408;28;20500;-63
2021/04/25 02:54:15;;;;;;;4.97;1.90;;;7.20;99.90;;;;;;5086278;28;20143;-65
2021/04/25 02:56:40;;;;;;;4.72;1.75;;;7.10;99.90;;;;;;5086611;28;20568;-64
2021/04/25 02:59:06;;;;;;;5.25;2.05;;;7.10;99.90;;;;;;5086923;28;20382;-64
2021/04/25 03:01:32;;;;;;;7.90;2.08;;;7.10;99.90;;;;;;5086820;28;20044;-64
2021/04/25 03:03:57;;;;;;;3.47;1.38;;;7.10;99.90;;;;;;5086557;28;20450;-64
2021/04/25 03:06:23;;;;;;;5.45;1.40;;;7.10;99.90;;;;;;5086596;28;20051;-64
2021/04/25 03:08:49;;;;;;;4.10;1.40;;;7.20;99.90;;;;;;5083258;28;20033;-64
2021/04/25 03:11:14;;;;;;;5.07;1.60;;;7.10;99.90;;;;;;5085263;28;20249;-64
2021/04/25 03:13:40;;;;;;;3.67;1.20;;;7.10;99.90;;;;;;5087633;28;20032;-63
2021/04/25 03:16:06;;;;;;;4.78;1.30;;;7.10;99.90;;;;;;5090428;28;20043;-63
2021/04/25 03:18:31;;;;;;;4.80;1.55;;;7.20;99.90;;;;;;5089574;28;20039;-63
2021/04/25 03:20:57;;;;;;;3.95;1.58;;;7.10;99.90;;;;;;5088853;28;20538;-63
2021/04/25 03:23:23;;;;;;;6.65;1.63;;;7.10;99.90;;;;;;5090919;28;20051;-64
2021/04/25 03:25:49;;;;;;;6.93;1.33;;;7.10;99.90;;;;;;5090693;28;20058;-64
2021/04/25 03:28:14;;;;;;;4.03;1.38;;;7.10;99.90;;;;;;5090650;28;20418;-64
2021/04/25 03:30:40;;;;;;;6.38;1.60;;;7.10;99.90;;;;;;5087351;28;21140;-64
2021/04/25 03:33:06;;;;;;;8.65;1.55;;;7.00;99.90;;;;;;5091387;28;20396;-64
2021/04/25 03:35:32;;;;;;;5.28;1.60;;;7.00;99.90;;;;;;5095981;28;20036;-64
2021/04/25 03:37:58;;;;;;;6.85;1.52;;;7.00;99.90;;;;;;5104453;28;20095;-64
2021/04/25 03:40:24;;;;;;;6.18;1.30;;;7.10;99.90;;;;;;5099719;28;20472;-64
2021/04/25 03:42:49;;;;;;;7.57;1.23;;;7.00;99.90;;;;;;5103609;28;20031;-64
2021/04/25 03:45:16;;;;;;;9.18;1.52;;;7.10;99.90;;;;;;5090879;28;20056;-64
2021/04/25 03:47:48;;;;;;;4.20;1.60;;;7.10;99.90;;;;;;5089425;28;20050;-64
2021/04/25 03:50:15;;;;;;;4.40;1.30;;;7.20;99.90;;;;;;5084958;28;20064;-63
2021/04/25 03:52:45;;;;;;;4.57;1.63;;;7.20;99.90;;;;;;5089860;28;20129;-63
2021/04/25 03:55:16;;;;;;;3.85;1.45;;;7.20;99.90;;;;;;5085866;28;20051;-63
2021/04/25 03:57:41;;;;;;;;;;;7.10;99.90;;;;;;5086240;28;20028;-64
2021/04/25 04:00:10;;;;;;;6.93;1.20;;;7.10;99.90;;;;;;5089702;28;20325;-64
2021/04/25 04:02:36;;;;;;;6.72;1.48;;;7.20;99.90;;;;;;5089234;28;20032;-65
2021/04/25 04:05:03;;;;;;;4.82;1.77;;;7.20;99.90;;;;;;5089921;28;20039;-64
2021/04/25 04:07:29;;;;;;;4.45;1.10;;;7.20;99.90;;;;;;5089113;28;20044;-64
2021/04/25 04:09:55;;;;;;;5.93;1.10;;;7.20;99.90;;;;;;5088935;28;20519;-64
2021/04/25 04:12:21;;;;;;;7.88;1.70;;;7.20;99.90;;;;;;5089255;28;20523;-64
2021/04/25 04:14:47;;;;;;;6.28;0.90;;;7.20;99.90;;;;;;5087745;28;20039;-63
2021/04/25 04:17:13;;;;;;;4.97;1.00;;;7.20;99.90;;;;;;5089653;28;20039;-63
2021/04/25 04:19:39;;;;;;;2.75;1.30;;;7.20;99.90;;;;;;5089173;28;20508;-64
2021/04/25 04:22:05;;;;;;;4.32;1.15;;;7.20;99.90;;;;;;5089920;28;20039;-63
2021/04/25 04:24:30;;;;;;;6.22;1.52;;;7.20;99.90;;;;;;5089171;28;20214;-64
2021/04/25 04:26:56;;;;;;;7.53;1.30;;;7.20;99.90;;;;;;5089155;28;20040;-64
2021/04/25 04:29:22;;;;;;;4.65;1.02;;;7.20;99.90;;;;;;5089951;28;20046;-64
2021/04/25 04:31:47;;;;;;;9.40;1.13;;;7.20;99.90;;;;;;5087484;28;20546;-64
2021/04/25 04:34:13;;;;;;;3.65;0.70;;;7.10;99.90;;;;;;5089746;28;20079;-64
2021/04/25 04:36:39;;;;;;;5.78;0.95;;;7.10;99.90;;;;;;5089227;28;20032;-63
2021/04/25 04:39:05;;;;;;;3.20;0.80;;;7.10;99.90;;;;;;5089623;28;20027;-63
2021/04/25 04:41:30;;;;;;;4.25;0.80;;;7.00;99.90;;;;;;5090601;28;20743;-63
2021/04/25 04:43:56;;;;;;;5.13;0.70;;;7.00;99.90;;;;;;5091729;28;20028;-64
2021/04/25 04:46:21;;;;;;;3.13;0.82;;;7.10;99.90;;;;;;5092485;28;20032;-64
2021/04/25 04:48:47;;;;;;;10.65;0.80;;;7.00;99.90;;;;;;5087511;28;20032;-64
2021/04/25 04:51:12;;;;;;;4.70;0.80;;;7.00;99.90;;;;;;5087224;28;20031;-64
2021/04/25 04:53:38;;;;;;;10.13;0.93;;;7.00;99.90;;;;;;5086834;28;20040;-63
2021/04/25 04:56:04;;;;;;;4.38;0.90;;;7.00;99.90;;;;;;5088330;28;20042;-64
2021/04/25 04:58:30;;;;;;;11.35;1.17;;;7.00;99.90;;;;;;5088128;28;20042;-64
2021/04/25 05:00:55;;;;;;;4.15;0.85;;;7.00;99.90;;;;;;5088159;28;20032;-64
2021/04/25 05:03:21;;;;;;;1.60;0.43;;;7.00;99.90;;;;;;5088926;28;20566;-64
2021/04/25 05:05:46;;;;;;;3.65;0.63;;;7.00;99.90;;;;;;5088602;28;20319;-63
2021/04/25 05:08:12;;;;;;;9.00;1.40;;;7.10;99.90;;;;;;5087364;28;20040;-64
2021/04/25 05:10:38;;;;;;;5.03;0.90;;;7.00;99.90;;;;;;5088515;28;20032;-64
2021/04/25 05:13:08;;;;;;;3.38;0.80;;;7.00;99.90;;;;;;5087970;28;20088;-64
2021/04/25 05:15:34;;;;;;;8.70;0.80;;;7.00;99.90;;;;;;5084589;28;20039;-63
2021/04/25 05:18:00;;;;;;;1.75;0.57;;;7.00;99.90;;;;;;5087128;28;20241;-64
2021/04/25 05:20:25;;;;;;;3.30;0.80;;;7.00;99.90;;;;;;5088031;28;20115;-68
2021/04/25 05:22:51;;;;;;;3.47;0.70;;;7.00;99.90;;;;;;5088086;28;20039;-63
2021/04/25 05:25:17;;;;;;;4.15;0.88;;;7.00;99.90;;;;;;5088284;28;20028;-64
2021/04/25 05:27:42;;;;;;;7.57;2.05;;;7.00;99.90;;;;;;5087831;28;20415;-63
2021/04/25 05:30:08;;;;;;;7.30;1.05;;;7.00;99.90;;;;;;5087472;28;20035;-64
2021/04/25 05:32:34;;;;;;;6.72;1.80;;;7.10;99.90;;;;;;5088538;28;20043;-64
2021/04/25 05:34:59;;;;;;;2.08;0.85;;;7.00;99.90;;;;;;5087644;28;20040;-63
2021/04/25 05:37:25;;;;;;;4.05;1.30;;;7.10;99.90;;;;;;5087534;28;20392;-63
2021/04/25 05:39:51;;;;;;;4.60;1.30;;;7.20;99.90;;;;;;5087365;28;20061;-63
2021/04/25 05:42:16;;;;;;;6.90;0.93;;;7.20;99.90;;;;;;5086694;28;20043;-64
2021/04/25 05:44:42;;;;;;;5.80;0.80;;;7.20;99.90;;;;;;5088372;28;20032;-63
2021/04/25 05:47:07;;;;;;;3.80;0.90;;;7.20;99.90;;;;;;5085757;28;20371;-63
2021/04/25 05:49:33;;;;;;;6.45;0.95;;;7.20;99.90;;;;;;5087874;28;20028;-63
2021/04/25 05:51:59;;;;;;;8.75;0.82;;;7.20;99.90;;;;;;5087777;28;20056;-64
2021/04/25 05:54:24;;;;;;;3.70;0.70;;;7.20;99.90;;;;;;5087420;28;20276;-63
2021/04/25 05:56:50;;;;;;;5.55;0.90;;;7.30;99.90;;;;;;5087478;28;20500;-63
2021/04/25 05:59:15;;;;;;;5.55;1.20;;;7.40;99.90;;;;;;5086913;28;20209;-64
2021/04/25 06:01:41;;;;;;;7.53;0.85;;;7.40;99.90;;;;;;5087628;28;20161;-64
2021/04/25 06:04:06;;;;;;;3.40;0.98;;;7.30;99.90;;;;;;5085736;28;20548;-64
2021/04/25 06:06:33;;;;;;;6.72;0.88;;;7.40;99.90;;;;;;5087184;28;20070;-63
2021/04/25 06:08:58;;;;;;;3.45;0.95;;;7.50;99.90;;;;;;5085998;28;20032;-63
2021/04/25 06:11:24;;;;;;;2.92;1.05;;;7.50;99.90;;;;;;5085846;28;20059;-63
2021/04/25 06:13:50;;;;;;;6.00;1.00;;;7.50;99.90;;;;;;5087204;28;20384;-63
2021/04/25 06:16:15;;;;;;;4.25;0.93;;;7.60;99.90;;;;;;5085886;28;20039;-63
2021/04/25 06:18:41;;;;;;;5.63;0.55;;;7.60;99.90;;;;;;5086190;28;20097;-64
2021/04/25 06:21:07;;;;;;;8.63;0.88;;;7.60;99.90;;;;;;5084955;28;20036;-64
2021/04/25 06:23:32;;;;;;;7.25;1.10;;;7.60;99.90;;;;;;5085892;28;20393;-64
2021/04/25 06:25:58;;;;;;;8.88;0.85;;;7.60;99.90;;;;;;5085695;28;20032;-64
2021/04/25 06:28:27;;;;;;;2.13;0.93;;;7.60;99.90;;;;;;5085737;28;20101;-64
2021/04/25 06:30:53;;;;;;;2.33;1.00;;;7.60;99.90;;;;;;5087089;28;20082;-64
2021/04/25 06:33:19;;;;;;;6.25;1.10;;;7.60;99.90;;;;;;5085860;28;20040;-63
2021/04/25 06:35:45;;;;;;;13.98;2.15;;;7.60;99.90;;;;;;5086683;28;20028;-64
2021/04/25 06:38:10;;;;;;;1.92;0.50;;;7.60;99.90;;;;;;5085677;28;20308;-64
2021/04/25 06:40:36;;;;;;;3.47;0.57;;;7.70;99.90;;;;;;5086032;28;20020;-63
2021/04/25 06:43:04;;;;;;;7.20;0.80;;;7.60;99.90;;;;;;5086716;28;20388;-63
2021/04/25 06:45:31;;;;;;;3.08;0.93;;;7.60;99.90;;;;;;5081869;28;20420;-63
2021/04/25 06:47:57;;;;;;;4.68;0.98;;;7.60;99.90;;;;;;5086473;28;20473;-64
2021/04/25 06:50:23;;;;;;;4.90;0.80;;;7.60;99.90;;;;;;5085019;28;20040;-64
2021/04/25 06:52:49;;;;;;;6.13;0.77;;;7.70;99.90;;;;;;5087072;28;20024;-63
2021/04/25 06:55:21;;;;;;;3.90;0.85;;;7.60;99.90;;;;;;5086210;28;20185;-64
2021/04/25 06:57:48;;;;;;;3.70;1.45;;;7.70;99.90;;;;;;5087105;28;20036;-63
2021/04/25 07:00:16;;;;;;;2.13;1.40;;;7.80;99.90;;;;;;5087003;28;20036;-64
2021/04/25 07:02:42;;;;;;;5.53;1.02;;;7.90;99.90;;;;;;5086934;28;20384;-64
2021/04/25 07:05:08;;;;;;;10.27;1.33;;;8.00;99.90;;;;;;5087481;28;20032;-63
2021/04/25 07:07:34;;;;;;;6.18;0.95;;;8.00;99.90;;;;;;5085719;28;20044;-64
2021/04/25 07:10:00;;;;;;;3.42;1.02;;;8.10;99.90;;;;;;5087043;28;20032;-64
2021/04/25 07:12:26;;;;;;;17.20;1.98;;;8.20;99.90;;;;;;5086362;28;20036;-65
2021/04/25 07:14:53;;;;;;;4.75;1.10;;;8.10;99.90;;;;;;5088099;28;20071;-64
2021/04/25 07:17:19;;;;;;;7.13;0.80;;;8.20;99.90;;;;;;5087507;28;20081;-64
2021/04/25 07:19:44;;;;;;;15.23;1.33;;;8.20;99.90;;;;;;5090231;28;20036;-64
2021/04/25 07:22:10;;;;;;;10.10;1.38;;;8.20;99.90;;;;;;5097811;28;20063;-64
2021/04/25 07:24:36;;;;;;;2.95;0.98;;;8.20;99.90;;;;;;5097254;28;20370;-64
2021/04/25 07:27:03;;;;;;;5.65;1.17;;;8.20;99.90;;;;;;5092830;28;20044;-65
2021/04/25 07:29:30;;;;;;;8.63;1.60;;;8.30;99.90;;;;;;5089327;28;20036;-64
2021/04/25 07:31:57;;;;;;;7.45;1.10;;;8.40;99.90;;;;;;5082116;28;20031;-66
2021/04/25 07:34:23;;;;;;;5.60;0.60;;;8.40;99.90;;;;;;5086340;28;20051;-64
2021/04/25 07:36:48;;;;;;;10.05;2.17;;;8.50;99.90;;;;;;5085814;28;20551;-63
2021/04/25 07:39:14;;;;;;;5.30;1.15;;;8.50;99.50;;;;;;5085325;28;20116;-63
2021/04/25 07:41:39;;;;;;;5.35;0.70;;;8.60;99.20;;;;;;5083411;28;20108;-64
2021/04/25 07:44:05;;;;;;;6.82;1.13;;;8.70;99.70;;;;;;5086000;28;20032;-63
2021/04/25 07:46:31;;;;;;;8.60;1.45;;;8.70;99.90;;;;;;5085743;28;20028;-64
2021/04/25 07:48:56;;;;;;;5.25;0.68;;;8.70;99.20;;;;;;5085177;28;20109;-64
2021/04/25 07:51:22;;;;;;;6.30;1.00;;;8.70;98.50;;;;;;5086012;28;20481;-63
2021/04/25 07:53:51;;;;;;;5.80;0.73;;;8.70;98.60;;;;;;5084205;28;20032;-63
2021/04/25 07:56:17;;;;;;;6.45;0.65;;;8.70;98.50;;;;;;5082376;28;20101;-64
2021/04/25 07:58:42;;;;;;;3.63;1.13;;;8.80;98.50;;;;;;5084995;28;20030;-65
2021/04/25 08:01:08;;;;;;;2.63;0.52;;;8.90;98.50;;;;;;5088425;28;20028;-64
2021/04/25 08:03:33;;;;;;;5.22;0.77;;;8.80;98.50;;;;;;5099630;28;20111;-63
2021/04/25 08:06:00;;;;;;;4.40;0.60;;;9.00;98.10;;;;;;5088481;28;20042;-64
2021/04/25 08:08:26;;;;;;;6.35;1.17;;;9.00;98.60;;;;;;5088727;28;20111;-65
2021/04/25 08:10:51;;;;;;;5.45;1.17;;;9.10;98.20;;;;;;5077845;28;20123;-64
2021/04/25 08:13:17;;;;;;;6.60;1.65;;;9.20;97.90;;;;;;5083199;28;20059;-64
2021/04/25 08:15:43;;;;;;;5.10;0.80;;;9.30;96.90;;;;;;5082253;28;20052;-65
2021/04/25 08:18:09;;;;;;;6.40;0.40;;;9.50;96.60;;;;;;5086405;28;20024;-63
2021/04/25 08:20:34;;;;;;;3.47;0.40;;;9.40;96.30;;;;;;5088950;28;20522;-64
2021/04/25 08:23:00;;;;;;;4.63;0.40;;;9.40;96.80;;;;;;5088509;28;20122;-64
2021/04/25 08:25:25;;;;;;;5.35;0.60;;;9.40;95.90;;;;;;5088684;28;20036;-64
2021/04/25 08:27:51;;;;;;;1.88;0.50;;;9.60;95.30;;;;;;5088280;28;20119;-65
2021/04/25 08:30:17;;;;;;;5.60;0.85;;;9.70;94.70;;;;;;5086619;28;20040;-64
2021/04/25 08:32:42;;;;;;;5.20;0.73;;;9.60;95.00;;;;;;5089584;28;20032;-64
2021/04/25 08:35:09;;;;;;;4.65;0.68;;;9.50;93.60;;;;;;5086301;28;20040;-64
2021/04/25 08:37:35;;;;;;;5.25;0.47;;;9.50;94.00;;;;;;5085606;28;20476;-63
2021/04/25 08:40:00;;;;;;;5.63;0.45;;;9.50;93.80;;;;;;5087059;28;20043;-64
2021/04/25 08:42:26;;;;;;;3.92;0.60;;;9.40;93.90;;;;;;5084781;28;20475;-65
2021/04/25 08:44:54;;;;;;;6.25;0.50;;;9.50;95.50;;;;;;5083601;28;20062;-66
2021/04/25 08:47:22;;;;;;;7.03;0.88;;;9.60;94.00;;;;;;5086082;28;20032;-65
2021/04/25 08:49:48;;;;;;;8.48;1.35;;;9.70;93.50;;;;;;5087491;28;20032;-63
2021/04/25 08:52:14;;;;;;;6.68;1.23;;;9.70;93.70;;;;;;5086753;28;20416;-65
2021/04/25 08:54:41;;;;;;;9.05;0.63;;;9.70;94.40;;;;;;5083980;28;20130;-63
2021/04/25 08:57:07;;;;;;;2.33;0.55;;;9.70;94.00;;;;;;5086208;28;20032;-64
2021/04/25 08:59:33;;;;;;;2.08;0.28;;;9.80;94.50;;;;;;5087150;28;20035;-64
2021/04/25 09:01:59;;;;;;;3.35;0.40;;;9.90;93.60;;;;;;5085623;28;20036;-67
2021/04/25 09:04:24;;;;;;;4.05;0.40;;;10.20;92.80;;;;;;5087706;28;20036;-64
2021/04/25 09:07:04;;;;;;;3.80;0.60;;;10.30;91.80;;;;;;5084422;28;20039;-66
2021/04/25 09:09:49;;;;;;;5.18;0.80;;;10.20;91.20;;;;;;5083356;28;20102;-65
2021/04/25 09:12:37;;;;;;;13.43;1.65;;;10.30;91.00;;;;;;5077451;28;20068;-64
2021/04/25 09:15:11;;;;;;;7.95;0.77;;;10.30;91.10;;;;;;5083458;28;20039;-65
2021/04/25 09:17:52;;;;;;;5.38;0.57;;;10.40;90.80;;;;;;5082093;28;20064;-65
2021/04/25 09:20:19;;;;;;;3.58;0.43;;;10.50;90.40;;;;;;5087385;28;20036;-65
2021/04/25 09:22:51;;;;;;;2.47;0.57;;;10.60;89.00;;;;;;5088386;28;21443;-64
2021/04/25 09:25:18;;;;;;;3.33;0.43;;;10.70;86.70;;;;;;5087096;28;20262;-65
2021/04/25 09:27:46;;;;;;;4.55;0.47;;;10.70;85.90;;;;;;5086668;28;20095;-66
2021/04/25 09:30:18;;;;;;;3.50;0.40;;;10.70;83.60;;;;;;5088172;28;20100;-65
2021/04/25 09:32:44;;;;;;;6.72;0.93;;;10.60;82.70;;;;;;5088887;28;20404;-65
2021/04/25 09:35:17;;;;;;;5.22;0.77;;;10.60;82.40;;;;;;5088280;28;20047;-65
2021/04/25 09:37:46;;;;;;;5.55;1.02;;;10.90;81.00;;;;;;5088030;28;20036;-65
2021/04/25 09:40:15;;;;;;;8.82;0.52;;;11.10;82.50;;;;;;5086250;28;20532;-64
2021/04/25 09:42:59;;;;;;;3.30;0.30;;;11.30;81.00;;;;;;5085954;28;20035;-65
2021/04/25 09:45:27;;;;;;;3.65;0.45;;;11.50;76.20;;;;;;5084364;28;20058;-65
2021/04/25 09:47:54;;;;;;;8.40;0.75;;;11.50;78.10;;;;;;5086856;28;20032;-65
2021/04/25 09:50:21;;;;;;;8.57;1.30;;;11.50;75.20;;;;;;5087374;28;20493;-65
2021/04/25 09:52:50;;;;;;;7.13;0.52;;;11.40;76.70;;;;;;5087813;28;20058;-64
2021/04/25 09:55:24;;;;;;;3.67;0.38;;;11.20;77.50;;;;;;5084945;28;20131;-65
2021/04/25 09:57:52;;;;;;;9.65;0.75;;;11.00;77.80;;;;;;5083971;28;20130;-65
2021/04/25 10:00:20;;;;;;;2.80;0.60;;;10.80;77.90;;;;;;5084039;28;20059;-65
2021/04/25 10:02:55;;;;;;;5.53;0.85;;;10.60;79.80;;;;;;5087791;28;20562;-65
2021/04/25 10:05:22;;;;;;;2.47;0.35;;;10.70;82.00;;;;;;5084657;28;20076;-65
2021/04/25 10:07:48;;;;;;;4.43;0.47;;;10.70;83.40;;;;;;5083560;28;20554;-65
2021/04/25 10:10:15;;;;;;;7.38;1.08;;;10.90;81.00;;;;;;5088132;28;20032;-64
2021/04/25 10:12:42;;;;;;;5.95;0.45;;;11.00;79.10;;;;;;5088909;28;20063;-65
2021/04/25 10:15:09;;;;;;;3.55;0.63;;;11.00;77.90;;;;;;5088809;28;20038;-64
2021/04/25 10:17:35;;;;;;;4.22;0.93;;;11.00;78.30;;;;;;5085786;28;20043;-63
2021/04/25 10:20:03;;;;;;;3.38;0.60;;;11.00;79.70;;;;;;5086722;28;20382;-65
2021/04/25 10:22:28;;;;;;;7.38;0.93;;;11.10;78.80;;;;;;5086143;28;20075;-65
2021/04/25 10:24:54;;;;;;;4.78;0.77;;;11.10;77.80;;;;;;5086939;28;20052;-66
2021/04/25 10:27:25;;;;;;;4.07;0.60;;;11.40;74.60;;;;;;5086347;28;20044;-64
2021/04/25 10:29:57;;;;;;;6.22;0.70;;;11.40;75.50;;;;;;5084264;28;20036;-68
2021/04/25 10:32:22;;;;;;;7.25;0.90;;;11.70;75.20;;;;;;5087087;28;20100;-63
2021/04/25 10:35:08;;;;;;;9.65;0.38;;;11.70;71.70;;;;;;5085904;28;20543;-65
2021/04/25 10:37:38;;;;;;;4.75;0.65;;;11.80;71.90;;;;;;5084047;28;20851;-65
2021/04/25 10:40:19;;;;;;;4.38;0.45;;;11.90;73.70;;;;;;5086360;28;20055;-65
2021/04/25 10:42:57;;;;;;;4.30;0.60;;;12.00;71.80;;;;;;5086570;28;20036;-66
2021/04/25 10:45:29;;;;;;;5.10;0.63;;;12.00;70.50;;;;;;5082152;28;20368;-62
2021/04/25 10:48:33;;;;;;;3.42;0.57;;;12.00;70.20;;;;;;5086035;28;20040;-65
2021/04/25 10:51:12;;;;;;;5.70;0.95;;;12.10;67.80;;;;;;5084118;28;20031;-65
2021/04/25 10:53:43;;;;;;;3.38;0.40;;;12.00;67.90;;;;;;5086577;28;20043;-63
2021/04/25 10:56:19;;;;;;;5.10;0.50;;;12.00;67.10;;;;;;5085972;28;20040;-65
2021/04/25 10:58:47;;;;;;;3.30;0.93;;;12.00;69.50;;;;;;5081980;28;20036;-65
2021/04/25 11:01:38;;;;;;;2.40;0.57;;;12.10;68.30;;;;;;5085819;28;20044;-65
2021/04/25 11:04:04;;;;;;;4.25;0.68;;;12.10;67.90;;;;;;5085103;28;20036;-65
2021/04/25 11:06:29;;;;;;;4.68;0.77;;;12.10;69.90;;;;;;5087197;28;20040;-65
2021/04/25 11:08:56;;;;;;;3.03;0.70;;;12.10;70.00;;;;;;5088293;28;20036;-63
2021/04/25 11:11:39;;;;;;;6.07;0.73;;;12.10;68.20;;;;;;5091837;28;20044;-64
2021/04/25 11:14:07;;;;;;;6.68;0.93;;;12.30;67.50;;;;;;5093150;28;20047;-64
2021/04/25 11:16:35;;;;;;;4.75;0.57;;;12.20;66.80;;;;;;5092025;28;20032;-64
2021/04/25 11:19:12;;;;;;;7.82;0.73;;;11.80;67.20;;;;;;5086589;28;20048;-65
2021/04/25 11:21:45;;;;;;;3.90;0.57;;;11.90;68.60;;;;;;5087239;28;21058;-65
2021/04/25 11:24:10;;;;;;;5.20;0.63;;;11.90;67.00;;;;;;5086195;28;20090;-65
2021/04/25 11:26:36;;;;;;;3.67;0.52;;;12.00;68.30;;;;;;5086180;28;20040;-65
2021/04/25 11:29:14;;;;;;;6.30;0.77;;;12.20;68.00;;;;;;5085952;28;20040;-65
2021/04/25 11:34:29;;;;;;;5.05;0.60;;;11.90;67.20;;;;;;5085458;28;20040;-65
2021/04/25 11:37:03;;;;;;;6.45;0.93;;;11.60;67.40;;;;;;5087446;28;20107;-65
2021/04/25 11:39:38;;;;;;;8.00;0.80;;;11.60;69.70;;;;;;5088516;28;20040;-65
2021/04/25 11:42:04;;;;;;;4.57;0.63;;;11.70;67.10;;;;;;5087706;28;20032;-65
2021/04/25 11:44:33;;;;;;;4.25;0.60;;;12.00;68.20;;;;;;5089288;28;20185;-65
2021/04/25 11:47:04;;;;;;;2.80;0.55;;;12.40;67.30;;;;;;5089457;28;20036;-64
2021/04/25 11:49:33;;;;;;;2.55;0.50;;;12.60;66.60;;;;;;5088909;28;20036;-65
2021/04/25 11:52:11;;;;;;;4.95;0.60;;;12.60;64.90;;;;;;5088368;28;20035;-64
2021/04/25 11:54:41;;;;;;;3.47;0.50;;;12.70;65.70;;;;;;5088616;28;20048;-65
2021/04/25 11:57:27;;;;;;;2.97;0.70;;;12.80;62.60;;;;;;5088418;28;20024;-65
2021/04/25 12:00:16;;;;;;;3.65;0.60;;;12.50;64.00;;;;;;5086675;28;20064;-65
2021/04/25 12:02:47;;;;;;;4.18;0.73;;;12.20;65.00;;;;;;5084712;28;20424;-65
2021/04/25 12:05:16;;;;;;;6.72;1.10;;;12.10;68.70;;;;;;5084198;28;20028;-65
2021/04/25 12:07:51;;;;;;;7.77;0.93;;;12.30;66.80;;;;;;5084918;28;20549;-65
2021/04/25 12:10:26;;;;;;;3.15;0.77;;;12.20;68.40;;;;;;5085829;28;20032;-65
2021/04/25 12:13:04;;;;;;;2.58;0.40;;;12.20;67.40;;;;;;5089387;28;20044;-65
2021/04/25 12:15:31;;;;;;;2.65;0.45;;;12.30;68.90;;;;;;5088738;28;20370;-65
2021/04/25 12:17:58;;;;;;;5.50;0.95;;;12.40;68.50;;;;;;5088742;28;20058;-65
2021/04/25 12:20:25;;;;;;;5.72;0.95;;;12.40;68.80;;;;;;5088919;28;20036;-64
2021/04/25 12:22:51;;;;;;;4.85;0.43;;;12.30;68.30;;;;;;5082836;28;20544;-63
2021/04/25 12:25:18;;;;;;;8.63;0.52;;;12.30;70.20;;;;;;5084256;28;20108;-65
2021/04/25 12:27:55;;;;;;;4.32;0.55;;;12.30;67.90;;;;;;5086998;28;20040;-65
2021/04/25 12:30:30;;;;;;;1.52;0.45;;;12.00;68.40;;;;;;5079722;28;20039;-66
2021/04/25 12:33:12;;;;;;;3.97;0.60;;;12.20;69.30;;;;;;5083990;28;20042;-65
2021/04/25 12:35:42;;;;;;;7.30;1.08;;;12.30;67.40;;;;;;5082387;28;20500;-65
2021/04/25 12:38:19;;;;;;;1.90;0.43;;;12.40;66.80;;;;;;5082529;28;20043;-64
2021/04/25 12:40:59;;;;;;;10.85;0.77;;;12.10;66.20;;;;;;5081856;28;20146;-62
2021/04/25 12:43:30;;;;;;;7.97;0.55;;;11.90;66.70;;;;;;5084156;28;20295;-65
2021/04/25 12:45:57;;;;;;;4.40;0.50;;;11.70;68.40;;;;;;5077999;28;20043;-64
2021/04/25 12:48:33;;;;;;;5.30;0.73;;;11.50;70.00;;;;;;5083394;28;20119;-61
2021/04/25 12:51:18;;;;;;;3.97;0.98;;;11.60;70.40;;;;;;5086271;28;20057;-62
2021/04/25 12:53:59;;;;;;;3.63;0.73;;;11.90;70.50;;;;;;5086481;28;20415;-65
2021/04/25 12:56:33;;;;;;;3.53;0.50;;;12.10;70.20;;;;;;5085443;28;20151;-63
2021/04/25 12:59:11;;;;;;;3.25;0.65;;;12.30;68.20;;;;;;5086241;28;20115;-64